Terminal Aerodrome Forecast
Issued by NWS Twin Cities, MN

Home | Current Version | Previous Version | Graphics & Text | Print | Product List | Glossary On
Versions: 1 2 3 4 5 6 7 8 9 10 11 12 13
000
FTUS43 KMPX 171100
TAFEAU
TAF
KEAU 171121Z 1712/1812 31011KT P6SM OVC019
     FM171500 33005KT P6SM -SHSN BKN020
     FM180000 VRB02KT P6SM BKN100=

USA.gov is the U.S. government's official web portal to all federal, state and local government web resources and services.